ESMK/KID METAR and TAF weather

Enter ICAO airport designator
Station Type Date Time Source
ESMK METAR 2020/01/19 17:20 UTC NOAA

ESMK 191720Z 28006KT CAVOK 04/02 Q1034


Station Type Date Time Source
ESMK Decoded METAR 2020/01/19 17:20 UTC NOAA

Kristianstad / Everod, Sweden (ESMK) 55-55N 014-05E
Jan 19, 2020 - 12:20 PM EST / 2020.01.19 1720 UTC
Wind: from the W (280 degrees) at 7 MPH (6 KT):0
Visibility: greater than 7 mile(s):0
Temperature: 39 F (4 C)
Dew Point: 35 F (2 C)
Relative Humidity: 86%
Pressure (altimeter): 30.53 in. Hg (1034 hPa)
ob: ESMK 191720Z 28006KT CAVOK 04/02 Q1034
cycle: 17

Station Type Date Time Source
ESMK TAF 2015/03/18 12:33 UTC NOAA

TAF ESMK 181130Z 1812/1824 13012KT CAVOK

Example: see airport list